Time;durP1;ratioP1;P1;durP2;ratioP2;P2;SDS_P1;SDS_P2;PMS_P1;PMS_P2;Temp;Humidity;BMP_temperature;BMP_pressure;BME280_temperature;BME280_humidity;BME280_pressure;Samples;Min_cycle;Max_cycle;Signal;HPM_P1;HPM_P2
2023/04/16 00:02:24;;;;;;;;;;;21.40;52.10;;;;;;4780285;55;20072;-29
2023/04/16 00:07:24;;;;;;;;;;;21.40;52.20;;;;;;4842665;55;20096;-29
2023/04/16 00:12:25;;;;;;;;;;;21.40;52.10;;;;;;4834740;55;20084;-25
2023/04/16 00:17:26;;;;;;;;;;;21.40;52.10;;;;;;4801984;55;20124;-28
2023/04/16 00:22:26;;;;;;;;;;;21.40;52.20;;;;;;4892162;55;20140;-30
2023/04/16 00:27:27;;;;;;;;;;;21.40;52.10;;;;;;4773454;55;20060;-29
2023/04/16 00:32:27;;;;;;;;;;;21.40;52.10;;;;;;4746066;56;20120;-27
2023/04/16 00:37:29;;;;;;;;;;;21.40;52.10;;;;;;4775577;55;20072;-31
2023/04/16 00:42:29;;;;;;;;;;;21.40;52.10;;;;;;4805508;55;20302;-32
2023/04/16 00:47:30;;;;;;;;;;;21.40;52.10;;;;;;4946207;55;20112;-30
2023/04/16 00:52:31;;;;;;;;;;;21.40;52.10;;;;;;4767195;55;20110;-30
2023/04/16 00:57:32;;;;;;;;;;;21.40;52.10;;;;;;4914438;55;20087;-29
2023/04/16 01:02:33;;;;;;;;;;;21.40;52.10;;;;;;5014714;55;20407;-28
2023/04/16 01:07:33;;;;;;;;;;;21.40;52.10;;;;;;4763756;55;20326;-28
2023/04/16 01:12:34;;;;;;;;;;;21.40;52.10;;;;;;4799872;55;20408;-30
2023/04/16 01:17:35;;;;;;;;;;;21.40;52.10;;;;;;4746342;58;20084;-30
2023/04/16 01:22:35;;;;;;;;;;;21.40;52.10;;;;;;4794763;55;20275;-30
2023/04/16 01:27:36;;;;;;;;;;;21.40;52.10;;;;;;4777132;55;20064;-28
2023/04/16 01:32:37;;;;;;;;;;;21.40;52.20;;;;;;4858900;55;20123;-28
2023/04/16 01:37:38;;;;;;;;;;;21.40;52.10;;;;;;4755896;55;20096;-28
2023/04/16 01:42:38;;;;;;;;;;;21.40;52.10;;;;;;4921104;55;20052;-26
2023/04/16 01:47:39;;;;;;;;;;;21.40;52.10;;;;;;4746941;58;20056;-28
2023/04/16 01:52:41;;;;;;;;;;;21.40;52.00;;;;;;4847727;55;20088;-28
2023/04/16 01:57:42;;;;;;;;;;;21.40;52.10;;;;;;4802151;55;20123;-29
2023/04/16 02:02:45;;;;;;;;;;;21.40;52.10;;;;;;4768472;55;20108;-28
2023/04/16 02:07:46;;;;;;;;;;;21.40;52.10;;;;;;4746583;58;20080;-28
2023/04/16 02:12:46;;;;;;;;;;;21.40;52.10;;;;;;4768617;55;20120;-28
2023/04/16 02:17:49;;;;;;;;;;;21.40;52.10;;;;;;4746392;58;20116;-28
2023/04/16 02:22:50;;;;;;;;;;;21.40;52.10;;;;;;4746687;58;20747;-30
2023/04/16 02:27:50;;;;;;;;;;;21.40;52.00;;;;;;4890236;55;20113;-33
2023/04/16 02:32:51;;;;;;;;;;;21.40;52.00;;;;;;4834872;55;20287;-27
2023/04/16 02:37:52;;;;;;;;;;;21.40;52.00;;;;;;4768183;55;20071;-28
2023/04/16 02:42:53;;;;;;;;;;;21.40;52.10;;;;;;4796047;55;20291;-28
2023/04/16 02:47:53;;;;;;;;;;;21.40;52.00;;;;;;4784346;55;20068;-28
2023/04/16 02:52:54;;;;;;;;;;;21.40;52.00;;;;;;4814804;55;20350;-28
2023/04/16 02:57:55;;;;;;;;;;;21.40;52.00;;;;;;4767623;55;20073;-28
2023/04/16 03:02:55;;;;;;;;;;;21.40;52.00;;;;;;4746270;58;20276;-28
2023/04/16 03:07:56;;;;;;;;;;;21.40;51.50;;;;;;4780961;55;20378;-28
2023/04/16 03:12:57;;;;;;;;;;;21.40;52.00;;;;;;4747607;55;20113;-30
2023/04/16 03:17:58;;;;;;;;;;;21.40;52.00;;;;;;4833901;55;20315;-33
2023/04/16 03:23:01;;;;;;;;;;;21.40;52.10;;;;;;4852813;55;20081;-31
2023/04/16 03:28:02;;;;;;;;;;;21.40;52.00;;;;;;4785060;55;20053;-32
2023/04/16 03:33:03;;;;;;;;;;;21.40;52.00;;;;;;4815431;55;20306;-32
2023/04/16 03:38:04;;;;;;;;;;;21.40;52.10;;;;;;4814474;55;20064;-28
2023/04/16 03:43:04;;;;;;;;;;;21.40;52.10;;;;;;4767340;55;20104;-28
2023/04/16 03:48:05;;;;;;;;;;;21.40;52.00;;;;;;4746508;58;20121;-28
2023/04/16 03:53:06;;;;;;;;;;;21.40;52.10;;;;;;4805671;55;20052;-29
2023/04/16 03:58:07;;;;;;;;;;;21.40;52.00;;;;;;4828759;55;20068;-28
2023/04/16 04:03:07;;;;;;;;;;;21.40;52.00;;;;;;4851882;55;20056;-31
2023/04/16 04:08:12;;;;;;;;;;;21.30;52.00;;;;;;4776002;55;20084;-28
2023/04/16 04:13:13;;;;;;;;;;;21.40;52.00;;;;;;4746195;55;20365;-26
2023/04/16 04:18:14;;;;;;;;;;;21.40;52.00;;;;;;4769062;55;20056;-28
2023/04/16 04:23:17;;;;;;;;;;;21.40;52.00;;;;;;4746371;58;20104;-30
2023/04/16 04:28:18;;;;;;;;;;;21.30;52.00;;;;;;4746410;58;20067;-29
2023/04/16 04:33:18;;;;;;;;;;;21.40;52.10;;;;;;4790879;55;20120;-28
2023/04/16 04:38:20;;;;;;;;;;;21.30;51.90;;;;;;4746920;58;20374;-28
2023/04/16 04:43:21;;;;;;;;;;;21.40;52.10;;;;;;4912902;55;20423;-28
2023/04/16 04:48:25;;;;;;;;;;;21.40;52.00;;;;;;4819561;55;20330;-28
2023/04/16 04:53:26;;;;;;;;;;;21.30;52.00;;;;;;4746522;58;20844;-30
2023/04/16 04:58:26;;;;;;;;;;;21.30;51.90;;;;;;4774109;55;20073;-28
2023/04/16 05:03:27;;;;;;;;;;;21.40;52.00;;;;;;4787650;55;20295;-30
2023/04/16 05:08:27;;;;;;;;;;;21.30;51.90;;;;;;4827860;55;20056;-29
2023/04/16 05:13:28;;;;;;;;;;;21.40;52.00;;;;;;4760899;55;20112;-32
2023/04/16 05:18:29;;;;;;;;;;;21.30;51.90;;;;;;4803472;55;20064;-28
2023/04/16 05:23:30;;;;;;;;;;;21.30;51.90;;;;;;4746832;58;20322;-28
2023/04/16 05:28:31;;;;;;;;;;;21.30;51.90;;;;;;4834382;55;20068;-29
2023/04/16 05:33:33;;;;;;;;;;;21.30;51.90;;;;;;4769607;55;20377;-27
2023/04/16 05:38:33;;;;;;;;;;;21.30;51.90;;;;;;4762018;55;20087;-28
2023/04/16 05:43:34;;;;;;;;;;;21.30;51.90;;;;;;4750814;55;20376;-28
2023/04/16 05:48:36;;;;;;;;;;;21.30;51.90;;;;;;4746648;58;20121;-29
2023/04/16 05:53:37;;;;;;;;;;;21.30;51.90;;;;;;4746930;55;20084;-27
2023/04/16 05:58:37;;;;;;;;;;;21.30;51.90;;;;;;4817954;55;20359;-28
2023/04/16 06:03:41;;;;;;;;;;;21.30;51.90;;;;;;4806479;55;20108;-29
2023/04/16 06:08:41;;;;;;;;;;;21.30;51.90;;;;;;4767981;55;20112;-28
2023/04/16 06:13:43;;;;;;;;;;;21.30;52.00;;;;;;4835611;55;20156;-27
2023/04/16 06:18:44;;;;;;;;;;;21.30;51.90;;;;;;4746879;58;20076;-30
2023/04/16 06:23:44;;;;;;;;;;;21.30;51.90;;;;;;4746302;58;20319;-30
2023/04/16 06:28:45;;;;;;;;;;;21.30;51.90;;;;;;4746517;58;20080;-25
2023/04/16 06:33:45;;;;;;;;;;;21.30;51.90;;;;;;4769639;55;20081;-27
2023/04/16 06:38:46;;;;;;;;;;;21.30;51.90;;;;;;4746587;58;20109;-29
2023/04/16 06:43:47;;;;;;;;;;;21.30;51.90;;;;;;4801619;55;20116;-32
2023/04/16 06:48:47;;;;;;;;;;;21.30;52.00;;;;;;4781015;55;20116;-31
2023/04/16 06:53:48;;;;;;;;;;;21.30;52.00;;;;;;4823562;55;20253;-32
2023/04/16 06:58:49;;;;;;;;;;;21.30;51.90;;;;;;4746523;56;20136;-30
2023/04/16 07:03:50;;;;;;;;;;;21.30;52.00;;;;;;4746448;55;20373;-29
2023/04/16 07:08:50;;;;;;;;;;;21.30;51.90;;;;;;4827495;55;20112;-32
2023/04/16 07:13:52;;;;;;;;;;;21.30;51.90;;;;;;4752661;55;20065;-31
2023/04/16 07:18:53;;;;;;;;;;;21.40;52.00;;;;;;4764929;55;20363;-31
2023/04/16 07:23:54;;;;;;;;;;;21.30;51.90;;;;;;4821722;55;20056;-29
2023/04/16 07:28:54;;;;;;;;;;;21.30;52.00;;;;;;4764205;55;20298;-27
2023/04/16 07:33:55;;;;;;;;;;;21.30;51.90;;;;;;4746339;58;20108;-29
2023/04/16 07:38:55;;;;;;;;;;;21.30;52.00;;;;;;4773895;55;20076;-30
2023/04/16 07:43:56;;;;;;;;;;;21.30;52.00;;;;;;4746460;55;20081;-32
2023/04/16 07:48:57;;;;;;;;;;;21.30;51.90;;;;;;4785209;55;20061;-29
2023/04/16 07:53:58;;;;;;;;;;;21.30;52.00;;;;;;4779874;55;20293;-29
2023/04/16 07:58:58;;;;;;;;;;;21.30;51.90;;;;;;4805525;55;20128;-28
2023/04/16 08:03:59;;;;;;;;;;;21.30;52.00;;;;;;4837461;55;20061;-31
2023/04/16 08:09:00;;;;;;;;;;;21.30;51.90;;;;;;4779603;55;20153;-33
2023/04/16 08:14:00;;;;;;;;;;;21.30;52.00;;;;;;4749390;55;20069;-29
2023/04/16 08:19:01;;;;;;;;;;;21.40;52.00;;;;;;4838585;55;20060;-32
2023/04/16 08:24:02;;;;;;;;;;;21.30;51.90;;;;;;4747133;55;20065;-30
2023/04/16 08:29:02;;;;;;;;;;;21.30;51.90;;;;;;4746515;55;20287;-28
2023/04/16 08:34:03;;;;;;;;;;;21.30;51.90;;;;;;4745941;58;20108;-31
2023/04/16 08:39:03;;;;;;;;;;;21.30;52.00;;;;;;4787596;55;20080;-29
2023/04/16 08:44:06;;;;;;;;;;;21.30;51.90;;;;;;4745685;58;20080;-30
2023/04/16 08:49:07;;;;;;;;;;;21.30;51.90;;;;;;4836871;55;20085;-30
2023/04/16 08:54:14;;;;;;;;;;;21.30;52.30;;;;;;4817363;55;20290;-30
2023/04/16 08:59:15;;;;;;;;;;;21.40;52.00;;;;;;4761244;55;20073;-29
2023/04/16 09:04:15;;;;;;;;;;;21.30;51.90;;;;;;4745689;58;20065;-26
2023/04/16 09:09:17;;;;;;;;;;;21.30;51.90;;;;;;4791594;55;20368;-32
2023/04/16 09:14:18;;;;;;;;;;;21.30;51.90;;;;;;4783542;55;20117;-31
2023/04/16 09:19:18;;;;;;;;;;;21.30;51.90;;;;;;4753909;55;20070;-31
2023/04/16 09:24:20;;;;;;;;;;;21.30;51.90;;;;;;4861217;55;20330;-27
2023/04/16 09:29:39;;;;;;;;;;;21.30;51.90;;;;;;4764328;55;20088;-32
2023/04/16 09:34:53;;;;;;;;;;;21.30;52.00;;;;;;4783577;55;20290;-30
2023/04/16 09:40:02;;;;;;;;;;;21.30;52.00;;;;;;4777291;55;20117;-31
2023/04/16 09:45:03;;;;;;;;;;;21.30;52.00;;;;;;4746388;58;20362;-28
2023/04/16 09:50:04;;;;;;;;;;;21.40;52.00;;;;;;4794312;55;20098;-29
2023/04/16 09:55:06;;;;;;;;;;;21.30;52.00;;;;;;4780439;55;20322;-29
2023/04/16 10:00:10;;;;;;;;;;;21.40;52.10;;;;;;4746851;58;20065;-27
2023/04/16 10:05:15;;;;;;;;;;;21.30;52.00;;;;;;4777280;55;20390;-31
2023/04/16 10:10:16;;;;;;;;;;;21.30;52.00;;;;;;4862598;55;20351;-29
2023/04/16 10:15:16;;;;;;;;;;;21.40;52.10;;;;;;4774136;55;20092;-31
2023/04/16 10:20:17;;;;;;;;;;;21.30;52.00;;;;;;4757360;55;20335;-31
2023/04/16 10:25:18;;;;;;;;;;;21.40;52.10;;;;;;4806923;55;20307;-30
2023/04/16 10:30:19;;;;;;;;;;;21.30;52.00;;;;;;4746523;58;20319;-34
2023/04/16 10:35:21;;;;;;;;;;;21.40;52.10;;;;;;4755266;55;20309;-30
2023/04/16 10:40:25;;;;;;;;;;;21.30;52.10;;;;;;4768547;55;20291;-28
2023/04/16 10:45:31;;;;;;;;;;;21.30;52.10;;;;;;4745693;58;20116;-25
2023/04/16 10:50:38;;;;;;;;;;;21.40;52.20;;;;;;4769740;55;20597;-30
2023/04/16 10:55:39;;;;;;;;;;;21.30;52.10;;;;;;4837262;55;20398;-28
2023/04/16 11:00:49;;;;;;;;;;;21.40;52.20;;;;;;4751655;55;20092;-29
2023/04/16 11:05:50;;;;;;;;;;;21.40;52.30;;;;;;4746022;58;20756;-26
2023/04/16 11:10:51;;;;;;;;;;;21.40;52.20;;;;;;4914783;55;20068;-31
2023/04/16 11:15:55;;;;;;;;;;;21.40;52.30;;;;;;4746828;58;20072;-30
2023/04/16 11:20:55;;;;;;;;;;;21.40;52.20;;;;;;4753003;55;20072;-29
2023/04/16 11:25:57;;;;;;;;;;;21.40;52.20;;;;;;4764364;55;20128;-27
2023/04/16 11:30:58;;;;;;;;;;;21.40;52.30;;;;;;4801402;55;20319;-28
2023/04/16 11:35:59;;;;;;;;;;;21.40;52.30;;;;;;4809700;54;20351;-28
2023/04/16 11:41:00;;;;;;;;;;;21.40;52.30;;;;;;4924781;55;20105;-30
2023/04/16 11:46:05;;;;;;;;;;;21.40;52.30;;;;;;4804248;55;20065;-29
2023/04/16 11:51:06;;;;;;;;;;;21.30;52.30;;;;;;4841803;55;20827;-30
2023/04/16 11:56:06;;;;;;;;;;;21.40;53.00;;;;;;4764306;55;20065;-22
2023/04/16 12:01:08;;;;;;;;;;;21.40;52.40;;;;;;4746257;58;20096;-26
2023/04/16 12:06:09;;;;;;;;;;;21.40;53.10;;;;;;4762365;55;20068;-29
2023/04/16 12:11:10;;;;;;;;;;;21.40;52.50;;;;;;4746376;58;20302;-30
2023/04/16 12:16:19;;;;;;;;;;;21.40;52.50;;;;;;4760130;55;20338;-31
2023/04/16 12:21:20;;;;;;;;;;;21.40;52.50;;;;;;4763353;55;20056;-31
2023/04/16 12:26:21;;;;;;;;;;;21.40;52.50;;;;;;4752775;55;20143;-29
2023/04/16 12:31:35;;;;;;;;;;;21.40;52.50;;;;;;4746938;55;20104;-31
2023/04/16 12:36:36;;;;;;;;;;;21.40;52.50;;;;;;4779370;55;20128;-27
2023/04/16 12:41:37;;;;;;;;;;;21.40;52.50;;;;;;4794410;55;20134;-28
2023/04/16 12:46:38;;;;;;;;;;;21.40;52.50;;;;;;4782191;55;20295;-30
2023/04/16 12:51:39;;;;;;;;;;;21.40;52.50;;;;;;4853998;55;20153;-28
2023/04/16 12:56:40;;;;;;;;;;;21.40;52.50;;;;;;4822055;55;20559;-28
2023/04/16 13:01:41;;;;;;;;;;;21.40;52.50;;;;;;4749590;55;20116;-31
2023/04/16 13:06:42;;;;;;;;;;;21.40;52.50;;;;;;4838894;55;20054;-32
2023/04/16 13:11:42;;;;;;;;;;;21.40;52.50;;;;;;4759867;55;20334;-27
2023/04/16 13:16:43;;;;;;;;;;;21.40;52.50;;;;;;4812750;55;20072;-32
2023/04/16 13:21:43;;;;;;;;;;;21.40;52.70;;;;;;4916709;55;20310;-33
2023/04/16 13:26:44;;;;;;;;;;;21.40;52.60;;;;;;4745396;58;20140;-32
2023/04/16 13:31:45;;;;;;;;;;;21.40;52.60;;;;;;4812070;55;20091;-31
2023/04/16 13:36:46;;;;;;;;;;;21.40;52.60;;;;;;4746409;58;20326;-30
2023/04/16 13:41:47;;;;;;;;;;;21.40;52.60;;;;;;4747002;55;20060;-28
2023/04/16 13:46:48;;;;;;;;;;;21.40;52.60;;;;;;4791855;55;20950;-29
2023/04/16 13:51:49;;;;;;;;;;;21.40;52.60;;;;;;4760286;55;20117;-30
2023/04/16 13:56:50;;;;;;;;;;;21.40;52.60;;;;;;4816406;55;20112;-34
2023/04/16 14:01:51;;;;;;;;;;;21.40;52.60;;;;;;4747064;58;20056;-28
2023/04/16 14:06:51;;;;;;;;;;;21.40;52.60;;;;;;4767003;55;20120;-31
2023/04/16 14:11:52;;;;;;;;;;;21.40;52.60;;;;;;4824444;55;20327;-29
2023/04/16 14:16:53;;;;;;;;;;;21.40;52.60;;;;;;4770870;55;20351;-30
2023/04/16 14:21:54;;;;;;;;;;;21.40;52.60;;;;;;4827044;55;20990;-29
2023/04/16 14:26:57;;;;;;;;;;;21.40;52.70;;;;;;4778882;55;20120;-27
2023/04/16 14:31:58;;;;;;;;;;;21.40;52.60;;;;;;4794958;55;20068;-32
2023/04/16 14:36:58;;;;;;;;;;;21.40;52.70;;;;;;4904554;55;20116;-28
2023/04/16 14:41:59;;;;;;;;;;;21.40;52.70;;;;;;4746358;58;20112;-27
2023/04/16 14:47:00;;;;;;;;;;;21.40;52.70;;;;;;4844748;55;20077;-26
2023/04/16 14:52:04;;;;;;;;;;;21.40;52.80;;;;;;4762031;55;20357;-28
2023/04/16 14:57:05;;;;;;;;;;;21.40;52.70;;;;;;4874681;55;20385;-31
2023/04/16 15:02:06;;;;;;;;;;;21.40;52.70;;;;;;4757906;55;20370;-30
2023/04/16 15:07:06;;;;;;;;;;;21.40;52.70;;;;;;4809185;55;20347;-29
2023/04/16 15:12:08;;;;;;;;;;;21.40;52.70;;;;;;4790587;55;20124;-29
2023/04/16 15:17:08;;;;;;;;;;;21.40;52.70;;;;;;4867833;55;20291;-32
2023/04/16 15:22:09;;;;;;;;;;;21.40;52.70;;;;;;4765708;55;20057;-28
2023/04/16 15:27:10;;;;;;;;;;;21.40;52.80;;;;;;4752858;55;20172;-30
2023/04/16 15:32:11;;;;;;;;;;;21.40;52.70;;;;;;4944402;55;20339;-28
2023/04/16 15:37:12;;;;;;;;;;;21.40;52.80;;;;;;4858546;55;20311;-28
2023/04/16 15:42:13;;;;;;;;;;;21.40;52.80;;;;;;4810350;55;20103;-30
2023/04/16 15:47:13;;;;;;;;;;;21.40;52.80;;;;;;4745380;58;20394;-27
2023/04/16 15:52:14;;;;;;;;;;;21.40;52.80;;;;;;4746285;55;20678;-26
2023/04/16 15:57:14;;;;;;;;;;;21.40;52.80;;;;;;4777617;55;20061;-28
2023/04/16 16:02:18;;;;;;;;;;;21.40;52.90;;;;;;4754198;55;20129;-29
2023/04/16 16:07:19;;;;;;;;;;;21.40;52.90;;;;;;4784016;55;20076;-31
2023/04/16 16:12:20;;;;;;;;;;;21.40;52.90;;;;;;4750003;55;20290;-32
2023/04/16 16:17:20;;;;;;;;;;;21.40;52.90;;;;;;4766580;55;20068;-30
2023/04/16 16:22:22;;;;;;;;;;;21.40;53.00;;;;;;4881323;55;20291;-27
2023/04/16 16:27:23;;;;;;;;;;;21.40;52.90;;;;;;4768807;55;20392;-30
2023/04/16 16:32:23;;;;;;;;;;;21.40;52.90;;;;;;4746117;58;20160;-28
2023/04/16 16:37:25;;;;;;;;;;;21.40;53.00;;;;;;4848758;55;20092;-27
2023/04/16 16:42:26;;;;;;;;;;;21.40;53.00;;;;;;4750869;55;20342;-29
2023/04/16 16:47:26;;;;;;;;;;;21.40;53.00;;;;;;4768888;55;20060;-28
2023/04/16 16:52:27;;;;;;;;;;;21.40;53.00;;;;;;4747449;58;20290;-30
2023/04/16 16:57:27;;;;;;;;;;;21.40;53.00;;;;;;4747605;58;20112;-28
2023/04/16 17:02:28;;;;;;;;;;;21.40;53.10;;;;;;4795128;55;20084;-28
2023/04/16 17:07:29;;;;;;;;;;;21.40;53.10;;;;;;4762792;55;20076;-31
2023/04/16 17:12:29;;;;;;;;;;;21.40;53.10;;;;;;4781922;55;20127;-29
2023/04/16 17:17:31;;;;;;;;;;;21.40;53.10;;;;;;4804431;55;20112;-32
2023/04/16 17:22:32;;;;;;;;;;;21.40;53.10;;;;;;4750554;55;20303;-28
2023/04/16 17:27:33;;;;;;;;;;;21.40;53.10;;;;;;4860078;55;20069;-27
2023/04/16 17:32:33;;;;;;;;;;;21.40;53.10;;;;;;4852610;55;20309;-29
2023/04/16 17:37:34;;;;;;;;;;;21.40;53.10;;;;;;4748901;55;20116;-28
2023/04/16 17:42:35;;;;;;;;;;;21.40;53.20;;;;;;4747300;58;20148;-28
2023/04/16 17:47:36;;;;;;;;;;;21.40;53.30;;;;;;4752125;55;20373;-29
2023/04/16 17:52:36;;;;;;;;;;;21.40;53.30;;;;;;4798729;55;20069;-31
2023/04/16 17:57:37;;;;;;;;;;;21.40;53.20;;;;;;4755121;55;20164;-29
2023/04/16 18:02:39;;;;;;;;;;;21.40;53.40;;;;;;4765110;55;20065;-31
2023/04/16 18:07:40;;;;;;;;;;;21.40;53.30;;;;;;4777321;55;20390;-31
2023/04/16 18:12:40;;;;;;;;;;;21.40;53.30;;;;;;4792448;55;20165;-29
2023/04/16 18:17:44;;;;;;;;;;;21.40;53.40;;;;;;4786378;55;20287;-31
2023/04/16 18:22:45;;;;;;;;;;;21.40;53.30;;;;;;4746567;58;20093;-32
2023/04/16 18:27:46;;;;;;;;;;;21.40;53.40;;;;;;4882734;55;20117;-29
2023/04/16 18:32:46;;;;;;;;;;;21.40;53.30;;;;;;4774876;55;20331;-31
2023/04/16 18:37:47;;;;;;;;;;;21.40;53.40;;;;;;4884433;55;20120;-30
2023/04/16 18:42:47;;;;;;;;;;;21.40;53.40;;;;;;4798378;55;20334;-31
2023/04/16 18:47:49;;;;;;;;;;;21.40;53.40;;;;;;4790782;55;20113;-31
2023/04/16 18:52:49;;;;;;;;;;;21.40;53.50;;;;;;4886322;55;20335;-31
2023/04/16 18:57:50;;;;;;;;;;;21.40;53.50;;;;;;4755197;55;20104;-32
2023/04/16 19:02:51;;;;;;;;;;;21.40;53.50;;;;;;4746323;58;20111;-28
2023/04/16 19:07:51;;;;;;;;;;;21.40;53.50;;;;;;4794784;55;20060;-32
2023/04/16 19:12:52;;;;;;;;;;;21.40;53.60;;;;;;4786500;55;20072;-31
2023/04/16 19:17:53;;;;;;;;;;;21.40;53.50;;;;;;4746147;58;20097;-28
2023/04/16 19:22:53;;;;;;;;;;;21.40;53.60;;;;;;4785868;55;20147;-30
2023/04/16 19:27:55;;;;;;;;;;;21.40;53.60;;;;;;4746460;58;20109;-26
2023/04/16 19:32:56;;;;;;;;;;;21.40;53.60;;;;;;4830115;55;20295;-29
2023/04/16 19:37:57;;;;;;;;;;;21.40;53.60;;;;;;4861548;55;20080;-29
2023/04/16 19:42:58;;;;;;;;;;;21.40;53.60;;;;;;4759059;55;20395;-28
2023/04/16 19:47:58;;;;;;;;;;;21.40;53.60;;;;;;4775901;55;20068;-31
2023/04/16 19:52:59;;;;;;;;;;;21.40;53.90;;;;;;4772071;55;20410;-28
2023/04/16 19:58:04;;;;;;;;;;;21.40;53.70;;;;;;4746305;58;20132;-31
2023/04/16 20:03:05;;;;;;;;;;;21.40;53.70;;;;;;4908253;55;20350;-28
2023/04/16 20:08:06;;;;;;;;;;;21.40;53.80;;;;;;4766582;55;20156;-30
2023/04/16 20:13:10;;;;;;;;;;;21.40;53.70;;;;;;4945835;55;20336;-29
2023/04/16 20:18:12;;;;;;;;;;;21.40;53.80;;;;;;4818373;55;20350;-26
2023/04/16 20:23:13;;;;;;;;;;;21.40;53.70;;;;;;4843054;55;20302;-30
2023/04/16 20:28:15;;;;;;;;;;;21.40;53.80;;;;;;4746408;58;20116;-27
2023/04/16 20:33:15;;;;;;;;;;;21.40;53.70;;;;;;4843463;55;20295;-30
2023/04/16 20:38:22;;;;;;;;;;;21.40;53.80;;;;;;4807874;55;20092;-29
2023/04/16 20:43:24;;;;;;;;;;;21.40;53.80;;;;;;4783171;55;20295;-31
2023/04/16 20:48:25;;;;;;;;;;;21.40;53.80;;;;;;4809650;55;20410;-31
2023/04/16 20:53:26;;;;;;;;;;;21.40;53.80;;;;;;4799531;55;20108;-30
2023/04/16 20:58:27;;;;;;;;;;;21.40;53.80;;;;;;4917959;55;20324;-28
2023/04/16 21:03:27;;;;;;;;;;;21.40;53.80;;;;;;4970644;55;20362;-30
2023/04/16 21:08:28;;;;;;;;;;;21.40;53.80;;;;;;4750979;55;20116;-29
2023/04/16 21:13:29;;;;;;;;;;;21.40;53.80;;;;;;4746412;58;20072;-28
2023/04/16 21:18:30;;;;;;;;;;;21.40;53.90;;;;;;4819034;55;20081;-30
2023/04/16 21:23:30;;;;;;;;;;;21.40;54.00;;;;;;4750655;55;20144;-29
2023/04/16 21:28:31;;;;;;;;;;;21.30;53.90;;;;;;4765948;55;20073;-28
2023/04/16 21:33:32;;;;;;;;;;;21.30;53.90;;;;;;4974778;55;20286;-27
2023/04/16 21:38:32;;;;;;;;;;;21.40;54.00;;;;;;4746657;58;20339;-31
2023/04/16 21:43:33;;;;;;;;;;;21.40;54.00;;;;;;4784080;55;20142;-28
2023/04/16 21:48:33;;;;;;;;;;;21.40;54.70;;;;;;4902749;55;20335;-29
2023/04/16 21:53:35;;;;;;;;;;;21.40;53.90;;;;;;4746787;58;20084;-30
2023/04/16 21:58:36;;;;;;;;;;;21.40;54.00;;;;;;4746831;58;20414;-27
2023/04/16 22:03:38;;;;;;;;;;;21.40;54.10;;;;;;4928223;55;20077;-28
2023/04/16 22:08:39;;;;;;;;;;;21.40;54.00;;;;;;4751951;55;20075;-29
2023/04/16 22:13:41;;;;;;;;;;;21.40;54.00;;;;;;4766211;55;20160;-31
2023/04/16 22:18:41;;;;;;;;;;;21.40;54.00;;;;;;4769319;55;20068;-27
2023/04/16 22:23:45;;;;;;;;;;;21.40;54.00;;;;;;4772547;55;20338;-29
2023/04/16 22:28:46;;;;;;;;;;;21.30;54.00;;;;;;4819709;55;20406;-28
2023/04/16 22:33:47;;;;;;;;;;;21.40;54.10;;;;;;4768549;55;20109;-29
2023/04/16 22:38:47;;;;;;;;;;;21.30;54.10;;;;;;4776169;55;20275;-29
2023/04/16 22:43:51;;;;;;;;;;;21.40;54.10;;;;;;4796728;55;20116;-32
2023/04/16 22:48:51;;;;;;;;;;;21.40;54.10;;;;;;4768029;55;20059;-29
2023/04/16 22:53:52;;;;;;;;;;;21.40;54.10;;;;;;4774268;55;20060;-29
2023/04/16 22:58:53;;;;;;;;;;;21.40;54.20;;;;;;4868039;55;20064;-27
2023/04/16 23:03:54;;;;;;;;;;;21.30;54.00;;;;;;4899151;55;20450;-31
2023/04/16 23:08:54;;;;;;;;;;;21.40;54.10;;;;;;4800856;55;20056;-28
2023/04/16 23:13:58;;;;;;;;;;;21.40;54.20;;;;;;4770622;55;20109;-27
2023/04/16 23:18:58;;;;;;;;;;;21.40;54.10;;;;;;4747266;55;20334;-30
2023/04/16 23:23:59;;;;;;;;;;;21.40;54.10;;;;;;4853845;55;20064;-29
2023/04/16 23:29:00;;;;;;;;;;;21.40;54.20;;;;;;4748187;55;20366;-29
2023/04/16 23:34:02;;;;;;;;;;;21.40;54.10;;;;;;4794321;55;20067;-27
2023/04/16 23:39:02;;;;;;;;;;;21.30;54.10;;;;;;4798829;55;20115;-27
2023/04/16 23:44:03;;;;;;;;;;;21.30;54.10;;;;;;4746128;58;20327;-29
2023/04/16 23:49:04;;;;;;;;;;;21.30;54.00;;;;;;4774096;55;20065;-28
2023/04/16 23:54:08;;;;;;;;;;;21.40;54.10;;;;;;4746576;58;20342;-27
2023/04/16 23:59:09;;;;;;;;;;;21.30;54.10;;;;;;4787168;55;20108;-30
